Details From FYWH - Windhoek Hosea Kutako Intl
To FBSK - SIR SERETSE KHAMA INTL
Flight Number -
Tags generated
Created
Modified
Stats Distance 482 nm / 892 km
Max Altitude 35,000 ft / 10,668 m
Waypoints 5
Social Downloads 2
Likes 0
Share VATSIM

Download

Looking for another format? Having issues loading an existing format? Contact us
Advertisement - Login to hide

Notes

Basic altitude profile: - Ascent Rate: 2500ft/min - Ascent Speed: 250kts - Cruise Altitude: 35000ft - Cruise Speed: 420kts - Descent Rate: 1500ft/min - Descent Speed: 250kts

Route

FYWH AXODO UN182 UNBIS FBSK

ID Type Via Altitude Latitude Longitude Leg Dist Tot Dist Heading (true) Name
O FYWH APT - 0 ft / 0 m -22.48181˚ 17.47157˚ - 0 nm - Windhoek Hosea Kutako Intl
AXODO FIX - 17,600 ft / 5,364 m -22.71589˚ 18.32681˚ 49 nm 49 nm 107° / 106° -
UTRIS FIX UN182 (AWY-HI) 35,000 ft / 10,668 m -23.16813˚ 20.00406˚ 96 nm 146 nm 107° / 106° -
UNBIS FIX UN182 (AWY-HI) 23,500 ft / 7,163 m -24.38550˚ 24.66386˚ 266 nm 412 nm 107° / 105° -
O FBSK APT - 0 ft / 0 m -24.55523˚ 25.91821˚ 69 nm 481 nm 99° / 98° SIR SERETSE KHAMA INTL

Altitude Profile

Advertisement - Login to hide

Weather


0- 5 10 15 20 25 30 35+ Temperature / ° C

Clouds and Precipitation
Forecast for 2017-12-18 18:00 UTC. Updated 2 hours ago

Ground ~20,000 ft ~40,000 ft Winds

FYWH

Details ICAO FYWH
Name Windhoek Hosea Kutako Intl
Region Namibia
Timezone Africa/Windhoek (UTC+2.0)
Stats Elevation 5,640 ft / 1,719 m (AMSL)
Location -22.481811° 17.471569°
Runways 2
Magnetic Variation 12.005° W

METAR

FYWH 181900Z 03009KT 9999 FEW035CB FEW035CB BKN090 23/12 Q1019 TEMPO -SHRA FEW035CB BKN090

Decode

TAF

Not found

Departure Runways

ID Width Length Bearing (true) Bearing (mag) Surface Threshold Offset Overrun Length
08 148 ft / 45 m 15,003 ft / 4,573 m 63.51° 75.51° Asphalt 0 ft / 0 m 345 ft / 105 m
16 98 ft / 30 m 5,010 ft / 1,527 m 141.33° 153.33° Asphalt 0 ft / 0 m 38 ft / 12 m
26 148 ft / 45 m 15,003 ft / 4,573 m 243.49° 255.49° Asphalt 0 ft / 0 m 84 ft / 26 m
34 98 ft / 30 m 5,010 ft / 1,527 m 321.32° 333.32° Asphalt 0 ft / 0 m 38 ft / 12 m

FBSK

Details ICAO FBSK (GBE)
Name SIR SERETSE KHAMA INTL
Region Botswana
Timezone Africa/Gaborone (UTC+2.0)
Stats Elevation 3,299 ft / 1,006 m (AMSL)
Location -24.555225° 25.918208°
Runways 1
Magnetic Variation 15.677° W

METAR

FBSK 181900Z 06006KT 9999 FEW025 29/06 Q1011 NOSIG

Decode

TAF

Not found

Destination Runways

ID Width Length Bearing (true) Bearing (mag) Surface Threshold Offset Overrun Length
08 148 ft / 45 m 9,849 ft / 3,002 m 61.48° 77.16° Concrete 0 ft / 0 m 197 ft / 60 m
26 148 ft / 45 m 9,849 ft / 3,002 m 241.47° 257.15° Concrete 0 ft / 0 m 197 ft / 60 m

Popular Alternatives